createdAt,value
2024-01-20T00:15:09.529Z,1025.61
2024-01-20T00:30:35.490Z,1025.80
2024-01-20T00:46:01.471Z,1025.81
2024-01-20T01:01:27.456Z,1025.72
2024-01-20T01:16:53.570Z,1025.71
2024-01-20T01:32:19.622Z,1025.74
2024-01-20T01:47:45.494Z,1025.70
2024-01-20T02:03:11.639Z,1025.81
2024-01-20T02:18:37.653Z,1025.73
2024-01-20T02:34:03.632Z,1025.80
2024-01-20T02:49:29.572Z,1025.81
2024-01-20T03:04:55.434Z,1025.82
2024-01-20T03:20:21.465Z,1025.79
2024-01-20T03:35:47.410Z,1026.06
2024-01-20T03:51:13.435Z,1026.15
2024-01-20T04:06:39.357Z,1026.19
2024-01-20T04:22:05.486Z,1026.42
2024-01-20T04:37:31.371Z,1026.55
2024-01-20T04:52:57.363Z,1026.76
2024-01-20T05:08:23.378Z,1026.97
2024-01-20T05:23:49.322Z,1027.16
2024-01-20T05:39:15.365Z,1027.22
2024-01-20T05:54:40.416Z,1027.43
2024-01-20T06:10:05.409Z,1027.57
2024-01-20T06:25:31.335Z,1027.75
2024-01-20T06:40:57.256Z,1027.81
2024-01-20T06:56:22.248Z,1027.98
2024-01-20T07:11:47.234Z,1028.02
2024-01-20T07:27:12.319Z,1028.09
2024-01-20T07:42:37.372Z,1028.09
2024-01-20T07:58:03.217Z,1028.35
2024-01-20T08:13:29.495Z,1028.59
2024-01-20T08:28:55.234Z,1028.60
2024-01-20T08:44:21.252Z,1028.54
2024-01-20T08:59:47.259Z,1028.58
2024-01-20T09:15:13.390Z,1028.68
2024-01-20T09:30:39.181Z,1028.96
2024-01-20T09:46:05.164Z,1028.89
2024-01-20T10:01:31.207Z,1028.94
2024-01-20T10:16:56.077Z,1028.97
2024-01-20T10:32:21.156Z,1028.85
2024-01-20T10:47:47.190Z,1028.83
2024-01-20T11:03:13.249Z,1028.79
2024-01-20T11:18:39.163Z,1028.62
2024-01-20T11:34:05.299Z,1028.65
2024-01-20T11:49:31.306Z,1028.57
2024-01-20T12:05:02.248Z,1028.48
2024-01-20T12:20:23.162Z,1028.41
2024-01-20T12:35:49.127Z,1028.18
2024-01-20T12:51:15.216Z,1028.06
2024-01-20T13:06:41.259Z,1027.99
2024-01-20T13:22:07.110Z,1027.78
2024-01-20T13:37:33.100Z,1027.79
2024-01-20T13:52:59.064Z,1027.64
2024-01-20T14:08:25.032Z,1027.59
2024-01-20T14:23:51.018Z,1027.55
2024-01-20T14:39:17.094Z,1027.63
2024-01-20T14:54:43.335Z,1027.61
2024-01-20T15:10:08.992Z,1027.85
2024-01-20T15:25:35.000Z,1027.92
2024-01-20T15:41:02.051Z,1027.97
2024-01-20T15:56:26.956Z,1027.86
2024-01-20T16:11:53.037Z,1027.87
2024-01-20T16:27:20.019Z,1027.94
2024-01-20T16:42:46.024Z,1027.95
2024-01-20T16:58:10.913Z,1027.84
2024-01-20T17:13:35.917Z,1027.95
2024-01-20T17:29:00.948Z,1028.16
2024-01-20T17:44:26.892Z,1028.18
2024-01-20T17:59:52.917Z,1028.07
2024-01-20T18:15:18.977Z,1028.00
2024-01-20T18:30:45.069Z,1028.00
2024-01-20T18:46:09.921Z,1028.03
2024-01-20T19:01:34.894Z,1028.12
2024-01-20T19:17:00.855Z,1028.17
2024-01-20T19:32:26.846Z,1028.16
2024-01-20T19:47:52.953Z,1028.32
2024-01-20T20:03:17.965Z,1028.25
2024-01-20T20:18:43.989Z,1028.21
2024-01-20T20:34:10.214Z,1028.03
2024-01-20T20:49:35.903Z,1027.84
2024-01-20T21:05:01.897Z,1027.81
2024-01-20T21:20:27.906Z,1027.88
2024-01-20T21:35:53.755Z,1027.86
2024-01-20T21:51:19.860Z,1027.89
2024-01-20T22:06:45.880Z,1027.66
2024-01-20T22:22:11.799Z,1027.79
2024-01-20T22:37:36.767Z,1027.77
2024-01-20T22:53:01.737Z,1027.75
2024-01-20T23:08:27.774Z,1027.86
2024-01-20T23:23:52.804Z,1027.89
2024-01-20T23:39:18.834Z,1027.89
2024-01-20T23:54:44.829Z,1028.10
